Time;durP1;ratioP1;P1;durP2;ratioP2;P2;SDS_P1;SDS_P2;PMS_P1;PMS_P2;Temp;Humidity;BMP_temperature;BMP_pressure;BME280_temperature;BME280_humidity;BME280_pressure;Samples;Min_cycle;Max_cycle;Signal;HPM_P1;HPM_P2
2023/08/15 00:04:24;;;;;;;21.42;16.33;;;;;;;;;;10008048;29;20050;-82
2023/08/15 00:09:25;;;;;;;19.63;15.43;;;;;;;;;;9996431;29;20567;-83
2023/08/15 00:14:27;;;;;;;23.63;16.17;;;;;;;;;;10007856;29;20498;-83
2023/08/15 00:19:27;;;;;;;21.63;16.85;;;;;;;;;;10007473;29;20145;-83
2023/08/15 00:24:28;;;;;;;24.33;16.83;;;;;;;;;;10007963;29;20042;-83
2023/08/15 00:29:29;;;;;;;19.98;16.75;;;;;;;;;;10004482;29;20050;-83
2023/08/15 00:34:30;;;;;;;20.00;15.88;;;;;;;;;;10000920;29;20049;-83
2023/08/15 00:39:31;;;;;;;20.73;16.17;;;;;;;;;;10005392;29;20443;-83
2023/08/15 00:44:32;;;;;;;20.20;16.83;;;;;;;;;;10004567;29;20038;-83
2023/08/15 00:49:34;;;;;;;18.83;16.25;;;;;;;;;;10002828;29;20248;-83
2023/08/15 00:54:35;;;;;;;25.40;18.25;;;;;;;;;;10008418;29;20406;-83
2023/08/15 00:59:36;;;;;;;24.38;18.35;;;;;;;;;;10000614;29;20100;-83
2023/08/15 01:04:41;;;;;;;26.05;20.83;;;;;;;;;;9997630;29;20106;-83
2023/08/15 01:09:42;;;;;;;27.92;21.58;;;;;;;;;;10004326;29;20050;-83
2023/08/15 01:14:48;;;;;;;23.92;19.70;;;;;;;;;;9990923;29;20041;-83
2023/08/15 01:19:50;;;;;;;23.23;17.17;;;;;;;;;;9996316;29;20049;-84
2023/08/15 01:24:51;;;;;;;26.60;16.40;;;;;;;;;;10012744;29;20046;-82
2023/08/15 01:29:52;;;;;;;25.90;18.02;;;;;;;;;;10004832;29;20065;-83
2023/08/15 01:35:02;;;;;;;24.15;17.77;;;;;;;;;;10009901;29;20052;-83
2023/08/15 01:40:03;;;;;;;24.17;17.27;;;;;;;;;;10001782;29;20045;-84
2023/08/15 01:45:05;;;;;;;24.83;18.20;;;;;;;;;;10011813;29;20564;-83
2023/08/15 01:50:06;;;;;;;23.05;18.33;;;;;;;;;;10012207;29;20056;-83
2023/08/15 01:55:07;;;;;;;22.45;17.02;;;;;;;;;;10005052;29;20460;-83
2023/08/15 02:00:09;;;;;;;29.27;20.42;;;;;;;;;;10005706;29;20038;-83
2023/08/15 02:05:10;;;;;;;25.13;18.48;;;;;;;;;;9997477;29;20449;-83
2023/08/15 02:10:11;;;;;;;25.33;17.73;;;;;;;;;;10011693;29;20050;-82
2023/08/15 02:15:12;;;;;;;29.42;21.30;;;;;;;;;;10010726;29;20046;-83
2023/08/15 02:20:13;;;;;;;27.35;19.25;;;;;;;;;;10007375;29;20431;-84
2023/08/15 02:25:14;;;;;;;25.10;18.83;;;;;;;;;;9991719;29;20043;-83
2023/08/15 02:30:15;;;;;;;25.17;18.92;;;;;;;;;;10006917;29;20052;-82
2023/08/15 02:35:16;;;;;;;28.25;20.48;;;;;;;;;;10010403;29;20535;-83
2023/08/15 02:40:17;;;;;;;22.30;17.58;;;;;;;;;;10004619;29;20081;-83
2023/08/15 02:45:18;;;;;;;27.65;19.77;;;;;;;;;;10000125;29;20051;-83
2023/08/15 02:50:19;;;;;;;23.83;19.65;;;;;;;;;;10004158;29;20057;-83
2023/08/15 02:55:20;;;;;;;25.50;19.75;;;;;;;;;;9993600;29;20055;-83
2023/08/15 03:00:21;;;;;;;28.10;20.38;;;;;;;;;;9993923;29;20688;-82
2023/08/15 03:05:22;;;;;;;25.83;20.25;;;;;;;;;;9991454;29;20042;-83
2023/08/15 03:10:23;;;;;;;29.02;21.45;;;;;;;;;;10001873;29;20054;-83
2023/08/15 03:15:24;;;;;;;27.15;20.75;;;;;;;;;;9989649;29;20392;-83
2023/08/15 03:20:25;;;;;;;26.17;19.45;;;;;;;;;;10006258;29;20066;-83
2023/08/15 03:25:26;;;;;;;22.95;17.67;;;;;;;;;;10005816;29;20137;-83
2023/08/15 03:30:27;;;;;;;26.23;19.42;;;;;;;;;;10005953;29;20665;-83
2023/08/15 03:35:28;;;;;;;24.95;18.15;;;;;;;;;;9996251;29;20080;-83
2023/08/15 03:40:29;;;;;;;25.58;18.98;;;;;;;;;;10007724;29;20073;-83
2023/08/15 03:45:30;;;;;;;29.88;21.50;;;;;;;;;;9990611;29;20034;-83
2023/08/15 03:50:35;;;;;;;25.92;20.30;;;;;;;;;;10000260;29;20093;-83
2023/08/15 03:55:36;;;;;;;25.77;19.83;;;;;;;;;;9995904;29;20163;-83
2023/08/15 04:00:37;;;;;;;29.17;20.88;;;;;;;;;;9991092;29;20054;-82
2023/08/15 04:05:38;;;;;;;23.83;18.33;;;;;;;;;;10003914;29;20136;-83
2023/08/15 04:10:39;;;;;;;26.05;20.90;;;;;;;;;;9998069;29;20530;-82
2023/08/15 04:15:41;;;;;;;23.58;19.50;;;;;;;;;;10005709;29;20049;-83
2023/08/15 04:20:43;;;;;;;28.92;21.63;;;;;;;;;;10001996;29;20125;-83
2023/08/15 04:25:45;;;;;;;25.60;20.85;;;;;;;;;;10012926;29;20187;-83
2023/08/15 04:30:47;;;;;;;28.20;21.67;;;;;;;;;;10005902;29;20052;-83
2023/08/15 04:35:48;;;;;;;23.20;18.65;;;;;;;;;;10006664;29;20152;-83
2023/08/15 04:40:49;;;;;;;31.80;21.92;;;;;;;;;;10010147;29;20399;-83
2023/08/15 04:45:50;;;;;;;26.40;20.65;;;;;;;;;;10003468;29;20038;-83
2023/08/15 04:50:52;;;;;;;25.95;20.90;;;;;;;;;;9995361;29;20509;-84
2023/08/15 04:55:53;;;;;;;27.05;19.75;;;;;;;;;;9989101;29;20597;-82
2023/08/15 05:00:54;;;;;;;25.15;19.25;;;;;;;;;;10009583;29;20130;-83
2023/08/15 05:05:55;;;;;;;25.08;19.90;;;;;;;;;;10005205;29;20085;-81
2023/08/15 05:10:56;;;;;;;31.85;22.10;;;;;;;;;;10002272;29;20066;-83
2023/08/15 05:15:57;;;;;;;25.70;20.73;;;;;;;;;;10009930;29;20168;-82
2023/08/15 05:20:58;;;;;;;24.33;19.98;;;;;;;;;;9997986;29;20042;-83
2023/08/15 05:25:59;;;;;;;27.45;21.17;;;;;;;;;;10000351;29;20623;-83
2023/08/15 05:31:00;;;;;;;30.67;21.27;;;;;;;;;;10009330;29;20403;-82
2023/08/15 05:36:01;;;;;;;26.00;20.02;;;;;;;;;;9994239;29;20052;-84
2023/08/15 05:41:02;;;;;;;26.65;20.08;;;;;;;;;;9984651;29;20038;-84
2023/08/15 05:46:03;;;;;;;25.05;18.35;;;;;;;;;;9997824;29;20050;-82
2023/08/15 05:51:04;;;;;;;22.27;17.45;;;;;;;;;;10004982;29;20046;-84
2023/08/15 05:56:06;;;;;;;21.77;16.52;;;;;;;;;;9982027;29;20065;-83
2023/08/15 06:01:07;;;;;;;20.42;16.85;;;;;;;;;;9995340;29;20533;-87
2023/08/15 06:06:08;;;;;;;22.05;16.75;;;;;;;;;;9986765;29;20050;-87
2023/08/15 06:11:09;;;;;;;25.75;16.80;;;;;;;;;;9986071;29;20038;-86
2023/08/15 06:16:10;;;;;;;19.52;15.07;;;;;;;;;;9996986;29;20538;-85
2023/08/15 06:21:11;;;;;;;18.33;14.68;;;;;;;;;;10004697;29;20098;-84
2023/08/15 06:26:12;;;;;;;18.05;15.38;;;;;;;;;;9987943;29;20054;-85
2023/08/15 06:31:13;;;;;;;17.92;15.10;;;;;;;;;;9999396;29;20615;-86
2023/08/15 06:36:14;;;;;;;17.08;13.18;;;;;;;;;;9989132;29;20045;-87
2023/08/15 06:41:15;;;;;;;17.15;13.25;;;;;;;;;;10005863;29;20049;-86
2023/08/15 06:46:16;;;;;;;17.20;12.85;;;;;;;;;;9988964;29;20510;-86
2023/08/15 06:51:17;;;;;;;16.42;11.63;;;;;;;;;;10004805;29;20038;-87
2023/08/15 06:56:18;;;;;;;16.38;13.15;;;;;;;;;;10020945;24;20066;-86
2023/08/15 07:01:20;;;;;;;15.15;11.85;;;;;;;;;;10008551;29;20069;-87
2023/08/15 07:06:21;;;;;;;16.02;11.30;;;;;;;;;;10009889;29;20066;-86
2023/08/15 07:11:22;;;;;;;17.73;11.55;;;;;;;;;;10010755;29;20074;-85
2023/08/15 07:16:23;;;;;;;14.00;10.23;;;;;;;;;;10008036;29;20042;-87
2023/08/15 07:21:24;;;;;;;11.02;9.02;;;;;;;;;;10010378;29;20045;-85
2023/08/15 07:26:25;;;;;;;12.50;8.65;;;;;;;;;;9996546;29;20061;-87
2023/08/15 07:31:27;;;;;;;12.50;8.45;;;;;;;;;;9971606;29;20049;-85
2023/08/15 07:36:28;;;;;;;12.25;8.07;;;;;;;;;;9972574;29;20057;-85
2023/08/15 07:41:29;;;;;;;12.80;8.45;;;;;;;;;;9970595;29;20057;-87
2023/08/15 07:46:30;;;;;;;12.02;7.68;;;;;;;;;;9971485;29;20042;-88
2023/08/15 07:51:31;;;;;;;12.02;7.75;;;;;;;;;;9970884;29;20450;-86
2023/08/15 07:56:33;;;;;;;11.25;7.60;;;;;;;;;;9969591;29;20050;-87
2023/08/15 08:01:35;;;;;;;9.75;6.75;;;;;;;;;;9970911;29;20507;-90
2023/08/15 08:06:36;;;;;;;9.63;6.65;;;;;;;;;;9970200;29;20062;-90
2023/08/15 08:11:37;;;;;;;8.40;7.20;;;;;;;;;;9966487;29;20110;-90
2023/08/15 08:16:38;;;;;;;8.25;6.47;;;;;;;;;;9969356;29;20464;-91
2023/08/15 08:21:39;;;;;;;7.63;6.47;;;;;;;;;;9969583;29;20046;-90
2023/08/15 08:26:40;;;;;;;7.82;6.15;;;;;;;;;;9968297;29;20042;-90
2023/08/15 08:31:42;;;;;;;9.23;6.90;;;;;;;;;;9979687;24;20073;-88
2023/08/15 08:36:43;;;;;;;10.55;6.50;;;;;;;;;;9969230;29;20402;-89
2023/08/15 08:41:44;;;;;;;11.48;5.88;;;;;;;;;;9965799;29;20188;-90
2023/08/15 08:46:45;;;;;;;7.78;6.00;;;;;;;;;;9956851;29;20627;-88
2023/08/15 08:51:47;;;;;;;7.95;5.47;;;;;;;;;;9967927;29;20529;-91
2023/08/15 08:56:49;;;;;;;9.18;5.82;;;;;;;;;;9968744;29;20227;-91
2023/08/15 09:01:50;;;;;;;5.57;4.95;;;;;;;;;;9968589;29;20026;-90
2023/08/15 09:06:52;;;;;;;4.78;4.18;;;;;;;;;;9970953;29;20058;-91
2023/08/15 09:11:53;;;;;;;4.50;3.60;;;;;;;;;;9975615;29;20049;-92
2023/08/15 09:16:54;;;;;;;6.95;3.90;;;;;;;;;;9974674;29;20049;-91
2023/08/15 09:21:55;;;;;;;5.20;4.40;;;;;;;;;;9974286;29;20452;-87
2023/08/15 09:26:56;;;;;;;4.55;3.60;;;;;;;;;;9973465;29;20054;-90
2023/08/15 09:31:58;;;;;;;4.75;4.20;;;;;;;;;;9959568;29;20050;-91
2023/08/15 09:36:59;;;;;;;5.55;3.95;;;;;;;;;;9974494;29;20050;-90
2023/08/15 09:42:00;;;;;;;6.57;3.95;;;;;;;;;;9969778;29;20051;-90
2023/08/15 09:47:02;;;;;;;4.25;3.45;;;;;;;;;;9974195;29;20054;-89
2023/08/15 09:52:04;;;;;;;4.93;3.97;;;;;;;;;;9973886;29;20133;-90
2023/08/15 09:57:05;;;;;;;8.68;4.05;;;;;;;;;;9973834;29;20045;-90
2023/08/15 10:02:11;;;;;;;4.90;4.25;;;;;;;;;;9974019;29;20133;-90
2023/08/15 10:07:12;;;;;;;5.15;3.60;;;;;;;;;;9973247;29;20053;-88
2023/08/15 10:12:13;;;;;;;5.22;3.42;;;;;;;;;;9974652;29;20054;-89
2023/08/15 10:17:14;;;;;;;5.00;4.15;;;;;;;;;;9973176;29;20153;-89
2023/08/15 10:22:19;;;;;;;4.50;3.80;;;;;;;;;;9975066;29;20504;-91
2023/08/15 10:27:20;;;;;;;16.45;11.68;;;;;;;;;;9973012;29;20050;-91
2023/08/15 10:32:30;;;;;;;8.70;4.55;;;;;;;;;;9973911;29;20079;-90
2023/08/15 10:37:38;;;;;;;6.18;4.43;;;;;;;;;;9972903;29;20506;-89
2023/08/15 10:43:01;;;;;;;5.93;3.30;;;;;;;;;;9973656;29;20126;-90
2023/08/15 10:48:03;;;;;;;7.05;3.80;;;;;;;;;;9973932;29;20079;-91
2023/08/15 10:53:05;;;;;;;5.22;3.67;;;;;;;;;;9972014;29;20046;-90
2023/08/15 10:58:10;;;;;;;6.03;3.70;;;;;;;;;;9970933;29;20141;-90
2023/08/15 11:03:12;;;;;;;4.28;3.22;;;;;;;;;;9970653;29;20050;-90
2023/08/15 11:08:19;;;;;;;5.60;3.90;;;;;;;;;;9970047;29;20602;-90
2023/08/15 11:13:20;;;;;;;6.07;3.75;;;;;;;;;;9971265;29;20571;-89
2023/08/15 11:18:23;;;;;;;5.50;3.60;;;;;;;;;;9971152;29;20056;-89
2023/08/15 11:23:27;;;;;;;4.45;3.45;;;;;;;;;;9972628;29;20034;-88
2023/08/15 11:28:28;;;;;;;6.88;3.42;;;;;;;;;;9970304;29;20054;-90
2023/08/15 11:33:32;;;;;;;5.00;3.33;;;;;;;;;;9969958;29;20082;-90
2023/08/15 11:38:35;;;;;;;5.38;3.20;;;;;;;;;;9971030;29;20057;-88
2023/08/15 11:43:36;;;;;;;5.40;3.28;;;;;;;;;;9968202;29;20039;-91
2023/08/15 11:48:37;;;;;;;9.38;3.65;;;;;;;;;;9971289;29;20053;-89
2023/08/15 11:53:38;;;;;;;6.70;3.60;;;;;;;;;;9971498;29;21026;-89
2023/08/15 11:58:39;;;;;;;5.68;3.15;;;;;;;;;;9971373;29;20099;-89
2023/08/15 12:03:40;;;;;;;6.10;3.90;;;;;;;;;;9969471;29;20828;-90
2023/08/15 12:08:43;;;;;;;6.63;4.00;;;;;;;;;;9971552;29;20046;-87
2023/08/15 12:13:46;;;;;;;5.97;3.92;;;;;;;;;;9969904;29;20092;-88
2023/08/15 12:18:47;;;;;;;5.18;3.65;;;;;;;;;;9968613;29;20038;-87
2023/08/15 12:23:48;;;;;;;5.32;3.20;;;;;;;;;;9971768;29;20034;-87
2023/08/15 12:28:49;;;;;;;4.90;3.42;;;;;;;;;;9970027;29;20062;-90
2023/08/15 12:33:50;;;;;;;5.10;3.60;;;;;;;;;;9971562;29;20418;-88
2023/08/15 12:38:51;;;;;;;6.68;3.90;;;;;;;;;;9969407;29;20125;-88
2023/08/15 12:43:52;;;;;;;5.97;3.42;;;;;;;;;;9977168;29;20060;-88
2023/08/15 12:48:58;;;;;;;3.72;2.92;;;;;;;;;;9974261;29;20765;-88
2023/08/15 12:54:00;;;;;;;4.32;3.08;;;;;;;;;;9974030;29;20058;-88
2023/08/15 12:59:01;;;;;;;4.25;2.70;;;;;;;;;;9973965;29;20042;-88
2023/08/15 13:04:02;;;;;;;5.07;2.88;;;;;;;;;;9976354;29;20042;-87
2023/08/15 13:09:03;;;;;;;6.00;3.10;;;;;;;;;;9976327;29;20054;-88
2023/08/15 13:14:04;;;;;;;3.85;2.88;;;;;;;;;;9977307;29;20038;-88
2023/08/15 13:19:05;;;;;;;3.20;2.90;;;;;;;;;;9975201;29;20034;-88
2023/08/15 13:24:07;;;;;;;4.60;2.53;;;;;;;;;;9976444;29;20486;-88
2023/08/15 13:29:08;;;;;;;2.92;2.72;;;;;;;;;;9973271;29;20050;-90
2023/08/15 13:34:09;;;;;;;4.97;2.92;;;;;;;;;;9972961;29;20042;-89
2023/08/15 13:39:11;;;;;;;4.10;2.70;;;;;;;;;;9973971;29;20072;-86
2023/08/15 13:44:12;;;;;;;3.97;2.60;;;;;;;;;;9971973;29;20133;-90
2023/08/15 13:49:13;;;;;;;3.05;2.70;;;;;;;;;;9971931;29;20495;-90
2023/08/15 13:54:37;;;;;;;3.72;2.92;;;;;;;;;;9967148;29;20293;-91
2023/08/15 13:59:38;;;;;;;5.55;3.15;;;;;;;;;;9960284;29;20606;-89
2023/08/15 14:05:02;;;;;;;;;;;;;;;;;;;;;
2023/08/15 14:10:03;;;;;;;3.65;2.70;;;;;;;;;;9965959;29;20500;-91
2023/08/15 14:15:10;;;;;;;3.83;3.05;;;;;;;;;;9971961;29;20038;-92
2023/08/15 14:20:11;;;;;;;6.30;3.47;;;;;;;;;;9979098;29;20046;-91
2023/08/15 14:25:12;;;;;;;3.42;2.92;;;;;;;;;;9972088;29;20440;-89
2023/08/15 14:30:14;;;;;;;6.10;3.00;;;;;;;;;;9971085;29;20062;-91
2023/08/15 14:35:15;;;;;;;3.65;3.05;;;;;;;;;;9972171;29;20039;-89
2023/08/15 14:40:16;;;;;;;3.55;3.25;;;;;;;;;;9970571;29;20039;-89
2023/08/15 14:45:17;;;;;;;6.10;4.18;;;;;;;;;;9972483;29;20369;-90
2023/08/15 14:50:18;;;;;;;5.38;3.53;;;;;;;;;;9972036;29;20450;-89
2023/08/15 14:55:19;;;;;;;3.90;3.17;;;;;;;;;;9971209;29;20049;-88
2023/08/15 15:00:20;;;;;;;8.15;5.55;;;;;;;;;;9971566;29;20113;-89
2023/08/15 15:05:22;;;;;;;4.32;3.58;;;;;;;;;;9969459;29;20046;-91
2023/08/15 15:10:23;;;;;;;4.80;3.38;;;;;;;;;;9961322;29;20107;-90
2023/08/15 15:15:24;;;;;;;5.68;3.78;;;;;;;;;;9968960;29;20054;-91
2023/08/15 15:20:25;;;;;;;4.85;3.53;;;;;;;;;;9959085;29;20125;-89
2023/08/15 15:25:26;;;;;;;3.53;3.20;;;;;;;;;;9971367;29;20046;-90
2023/08/15 15:30:27;;;;;;;3.63;3.25;;;;;;;;;;9970074;29;20066;-91
2023/08/15 15:35:28;;;;;;;4.78;3.35;;;;;;;;;;9970918;29;20080;-89
2023/08/15 15:40:29;;;;;;;4.13;3.42;;;;;;;;;;9979094;24;20046;-92
2023/08/15 15:45:30;;;;;;;9.73;4.40;;;;;;;;;;9932829;29;20038;-91
2023/08/15 15:50:33;;;;;;;5.53;3.15;;;;;;;;;;9931343;29;20566;-89
2023/08/15 15:55:36;;;;;;;3.70;3.38;;;;;;;;;;9948396;29;20078;-91
2023/08/15 16:00:38;;;;;;;4.45;3.75;;;;;;;;;;9946590;29;20043;-90
2023/08/15 16:05:39;;;;;;;4.32;3.90;;;;;;;;;;9923402;24;20063;-90
2023/08/15 16:10:40;;;;;;;4.60;3.90;;;;;;;;;;9909836;29;20147;-90
2023/08/15 16:15:41;;;;;;;4.28;3.75;;;;;;;;;;9895735;29;20081;-90
2023/08/15 16:20:42;;;;;;;4.55;3.20;;;;;;;;;;9910187;29;20054;-90
2023/08/15 16:25:43;;;;;;;4.53;3.60;;;;;;;;;;9914027;29;20043;-90
2023/08/15 16:30:44;;;;;;;5.15;3.78;;;;;;;;;;9894010;29;20051;-91
2023/08/15 16:35:45;;;;;;;3.92;3.53;;;;;;;;;;9909674;29;20035;-91
2023/08/15 16:40:46;;;;;;;4.28;3.40;;;;;;;;;;9894587;29;20035;-90
2023/08/15 16:45:47;;;;;;;5.72;4.18;;;;;;;;;;9907577;29;20112;-91
2023/08/15 16:50:48;;;;;;;4.60;3.70;;;;;;;;;;9906898;29;20063;-91
2023/08/15 16:56:12;;;;;;;4.88;3.95;;;;;;;;;;9908274;29;20062;-91
2023/08/15 17:01:14;;;;;;;4.30;3.90;;;;;;;;;;9907691;29;20131;-88
2023/08/15 17:06:15;;;;;;;5.55;4.88;;;;;;;;;;9908049;29;20047;-89
2023/08/15 17:11:16;;;;;;;8.00;5.18;;;;;;;;;;9908767;29;20100;-89
2023/08/15 17:16:17;;;;;;;7.15;5.80;;;;;;;;;;9907415;29;20082;-91
2023/08/15 17:21:18;;;;;;;7.55;6.30;;;;;;;;;;9906640;29;20128;-90
2023/08/15 17:26:21;;;;;;;9.77;6.30;;;;;;;;;;9909133;29;20650;-90
2023/08/15 17:31:22;;;;;;;11.02;6.10;;;;;;;;;;9900164;29;20047;-90
2023/08/15 17:36:26;;;;;;;11.32;5.90;;;;;;;;;;9900564;29;20082;-91
2023/08/15 17:41:58;;;;;;;9.07;6.33;;;;;;;;;;9914591;29;20043;-91
2023/08/15 17:46:58;;;;;;;6.10;5.35;;;;;;;;;;9889166;29;20042;-90
2023/08/15 17:51:59;;;;;;;6.18;5.53;;;;;;;;;;9900345;29;20089;-90
2023/08/15 17:57:04;;;;;;;6.28;5.47;;;;;;;;;;9914234;29;20039;-90
2023/08/15 18:02:08;;;;;;;8.93;5.50;;;;;;;;;;9907344;29;20055;-89
2023/08/15 18:07:12;;;;;;;5.82;5.28;;;;;;;;;;9948264;29;20096;-91
2023/08/15 18:12:14;;;;;;;7.03;5.20;;;;;;;;;;9934146;29;20081;-89
2023/08/15 18:17:17;;;;;;;5.55;5.00;;;;;;;;;;9936652;29;20047;-91
2023/08/15 18:22:19;;;;;;;7.38;5.47;;;;;;;;;;9936173;29;20411;-89
2023/08/15 18:27:23;;;;;;;7.72;6.18;;;;;;;;;;9934715;29;20120;-90
2023/08/15 18:32:35;;;;;;;8.00;5.50;;;;;;;;;;9934687;29;20134;-90
2023/08/15 18:37:36;;;;;;;7.03;5.88;;;;;;;;;;9932534;29;20050;-90
2023/08/15 18:42:37;;;;;;;11.43;6.60;;;;;;;;;;9937134;29;20081;-90
2023/08/15 18:47:38;;;;;;;6.90;5.55;;;;;;;;;;9932819;29;20701;-90
2023/08/15 18:52:43;;;;;;;9.57;5.97;;;;;;;;;;9936516;29;20043;-90
2023/08/15 18:57:44;;;;;;;7.80;5.88;;;;;;;;;;9934244;29;20047;-87
2023/08/15 19:02:45;;;;;;;6.68;6.07;;;;;;;;;;9937850;29;20058;-88
2023/08/15 19:07:46;;;;;;;9.65;6.75;;;;;;;;;;9933629;29;20047;-89
2023/08/15 19:12:47;;;;;;;10.23;6.20;;;;;;;;;;9933179;29;20142;-88
2023/08/15 19:17:49;;;;;;;8.40;6.13;;;;;;;;;;9934341;29;20074;-90
2023/08/15 19:22:50;;;;;;;9.85;7.35;;;;;;;;;;9938579;29;20102;-89
2023/08/15 19:27:52;;;;;;;7.60;6.47;;;;;;;;;;9940784;29;20403;-90
2023/08/15 19:32:56;;;;;;;8.10;6.05;;;;;;;;;;9923840;29;20150;-90
2023/08/15 19:37:57;;;;;;;8.13;5.88;;;;;;;;;;9929555;29;20053;-88
2023/08/15 19:42:58;;;;;;;7.68;5.90;;;;;;;;;;9933994;29;20134;-89
2023/08/15 19:47:59;;;;;;;8.80;6.55;;;;;;;;;;9932587;29;20451;-86
2023/08/15 19:53:00;;;;;;;12.38;7.03;;;;;;;;;;9933614;29;20058;-89
2023/08/15 19:58:01;;;;;;;8.15;6.60;;;;;;;;;;9933625;29;20042;-86
2023/08/15 20:03:02;;;;;;;7.35;5.93;;;;;;;;;;9979573;24;20146;-86
2023/08/15 20:08:03;;;;;;;8.60;6.32;;;;;;;;;;9969878;29;20060;-88
2023/08/15 20:13:05;;;;;;;10.00;6.60;;;;;;;;;;9970317;29;20046;-87
2023/08/15 20:18:07;;;;;;;10.27;7.32;;;;;;;;;;9954529;29;20099;-85
2023/08/15 20:23:08;;;;;;;9.02;6.90;;;;;;;;;;9971017;29;20031;-87
2023/08/15 20:28:11;;;;;;;9.07;7.63;;;;;;;;;;9968338;29;20499;-87
2023/08/15 20:33:12;;;;;;;12.38;7.82;;;;;;;;;;9971362;29;20042;-86
2023/08/15 20:38:13;;;;;;;9.27;6.90;;;;;;;;;;9960803;29;20743;-86
2023/08/15 20:43:14;;;;;;;10.02;7.63;;;;;;;;;;9967513;29;20038;-86
2023/08/15 20:48:15;;;;;;;12.63;8.02;;;;;;;;;;9969999;29;20439;-87
2023/08/15 20:53:16;;;;;;;10.25;7.80;;;;;;;;;;9970860;29;20053;-84
2023/08/15 20:58:17;;;;;;;12.45;8.25;;;;;;;;;;9949864;29;20505;-86
2023/08/15 21:03:18;;;;;;;10.00;8.48;;;;;;;;;;9994669;29;20057;-87
2023/08/15 21:08:20;;;;;;;10.13;7.93;;;;;;;;;;10014960;29;20061;-87
2023/08/15 21:13:21;;;;;;;15.15;9.43;;;;;;;;;;10013899;29;20056;-86
2023/08/15 21:18:22;;;;;;;16.23;9.10;;;;;;;;;;10014261;29;20453;-87
2023/08/15 21:23:23;;;;;;;10.38;8.52;;;;;;;;;;10014069;29;20053;-85
2023/08/15 21:28:24;;;;;;;13.35;9.77;;;;;;;;;;10006234;29;20064;-86
2023/08/15 21:33:25;;;;;;;10.70;9.40;;;;;;;;;;9997866;29;20038;-84
2023/08/15 21:38:26;;;;;;;11.73;9.05;;;;;;;;;;10013061;29;20539;-85
2023/08/15 21:43:28;;;;;;;13.25;9.23;;;;;;;;;;10011103;29;20120;-87
2023/08/15 21:48:29;;;;;;;13.57;9.57;;;;;;;;;;10013842;29;20050;-86
2023/08/15 21:53:30;;;;;;;14.23;9.20;;;;;;;;;;9996325;29;20034;-85
2023/08/15 21:58:31;;;;;;;15.27;9.38;;;;;;;;;;10011872;29;20042;-88
2023/08/15 22:03:32;;;;;;;11.80;8.90;;;;;;;;;;10012636;29;20065;-86
2023/08/15 22:08:33;;;;;;;11.30;8.75;;;;;;;;;;10012909;29;20611;-87
2023/08/15 22:13:34;;;;;;;11.70;8.23;;;;;;;;;;9987429;29;20126;-85
2023/08/15 22:18:35;;;;;;;11.05;8.00;;;;;;;;;;10013309;29;20546;-84
2023/08/15 22:23:36;;;;;;;10.82;8.63;;;;;;;;;;10003213;29;20499;-86
2023/08/15 22:28:37;;;;;;;12.57;9.23;;;;;;;;;;9989289;29;20152;-86
2023/08/15 22:33:38;;;;;;;14.15;9.90;;;;;;;;;;9997631;29;20035;-85
2023/08/15 22:38:39;;;;;;;13.35;9.30;;;;;;;;;;9994907;29;20050;-84
2023/08/15 22:43:40;;;;;;;11.50;7.47;;;;;;;;;;9995657;29;20901;-86
2023/08/15 22:48:41;;;;;;;9.70;8.02;;;;;;;;;;10011231;29;20395;-86
2023/08/15 22:53:44;;;;;;;11.90;9.38;;;;;;;;;;10011015;29;20087;-87
2023/08/15 22:58:45;;;;;;;13.35;7.85;;;;;;;;;;10001293;29;20386;-86
2023/08/15 23:03:46;;;;;;;12.15;8.43;;;;;;;;;;10024169;24;20070;-86
2023/08/15 23:08:47;;;;;;;10.43;7.70;;;;;;;;;;9993767;29;20064;-85
2023/08/15 23:13:49;;;;;;;14.20;8.23;;;;;;;;;;10010335;29;20041;-85
2023/08/15 23:18:50;;;;;;;10.60;7.88;;;;;;;;;;9993281;29;20057;-85
2023/08/15 23:23:51;;;;;;;12.25;9.38;;;;;;;;;;10009651;29;20046;-86
2023/08/15 23:28:52;;;;;;;12.88;9.38;;;;;;;;;;9979547;29;20075;-87
2023/08/15 23:33:53;;;;;;;14.30;9.68;;;;;;;;;;9972158;29;20780;-86
2023/08/15 23:38:55;;;;;;;12.77;9.80;;;;;;;;;;9971527;29;20053;-85
2023/08/15 23:43:56;;;;;;;11.65;8.70;;;;;;;;;;9971789;29;20042;-85
2023/08/15 23:48:57;;;;;;;12.80;9.88;;;;;;;;;;9971638;29;20103;-85
2023/08/15 23:53:58;;;;;;;14.05;10.15;;;;;;;;;;9969979;29;20071;-87
2023/08/15 23:58:59;;;;;;;14.30;10.57;;;;;;;;;;9971572;29;20058;-85
